Time;durP1;ratioP1;P1;durP2;ratioP2;P2;SDS_P1;SDS_P2;PMS_P1;PMS_P2;Temp;Humidity;BMP_temperature;BMP_pressure;BME280_temperature;BME280_humidity;BME280_pressure;Samples;Min_cycle;Max_cycle;Signal;HPM_P1;HPM_P2
2022/11/24 00:00:28;;;;;;;5.45;1.27;;;;;;;;;;6198419;23;20011;-73
2022/11/24 00:02:54;;;;;;;5.82;1.33;;;;;;;;;;6197843;23;20004;-73
2022/11/24 00:05:21;;;;;;;3.67;0.93;;;;;;;;;;6196233;23;20009;-73
2022/11/24 00:07:48;;;;;;;4.95;1.42;;;;;;;;;;6198590;23;20017;-74
2022/11/24 00:10:14;;;;;;;3.70;0.90;;;;;;;;;;6198391;23;20004;-74
2022/11/24 00:12:40;;;;;;;2.72;0.70;;;;;;;;;;6200364;23;20015;-73
2022/11/24 00:15:06;;;;;;;5.95;1.20;;;;;;;;;;6201472;23;20004;-73
2022/11/24 00:17:32;;;;;;;4.63;1.08;;;;;;;;;;6200212;23;20013;-73
2022/11/24 00:19:58;;;;;;;2.88;0.82;;;;;;;;;;6201724;23;20571;-73
2022/11/24 00:22:25;;;;;;;5.40;1.25;;;;;;;;;;6201828;23;20005;-73
2022/11/24 00:24:51;;;;;;;2.13;0.80;;;;;;;;;;6201876;23;20008;-73
2022/11/24 00:27:17;;;;;;;5.65;1.00;;;;;;;;;;6199444;23;20410;-74
2022/11/24 00:29:43;;;;;;;3.60;0.60;;;;;;;;;;6201271;23;20005;-73
2022/11/24 00:32:09;;;;;;;2.83;0.65;;;;;;;;;;6201203;23;20012;-73
2022/11/24 00:34:35;;;;;;;3.97;1.02;;;;;;;;;;6201279;23;20039;-75
2022/11/24 00:37:01;;;;;;;1.65;0.60;;;;;;;;;;6200749;23;20004;-74
2022/11/24 00:39:27;;;;;;;5.25;0.88;;;;;;;;;;6200721;23;20005;-73
2022/11/24 00:41:53;;;;;;;2.20;0.90;;;;;;;;;;6203027;23;20007;-73
2022/11/24 00:44:20;;;;;;;3.72;0.93;;;;;;;;;;6202592;23;20016;-72
2022/11/24 00:46:46;;;;;;;1.98;0.70;;;;;;;;;;6202935;23;20000;-73
2022/11/24 00:49:12;;;;;;;5.00;0.90;;;;;;;;;;6203215;23;20008;-72
2022/11/24 00:51:38;;;;;;;3.97;0.80;;;;;;;;;;6200960;23;20007;-76
2022/11/24 00:54:05;;;;;;;4.20;0.80;;;;;;;;;;6203201;22;20406;-75
2022/11/24 00:56:32;;;;;;;5.75;0.90;;;;;;;;;;6202753;23;20059;-75
2022/11/24 00:58:58;;;;;;;4.97;0.70;;;;;;;;;;6200935;23;20005;-74
2022/11/24 01:01:25;;;;;;;3.78;0.77;;;;;;;;;;6201794;23;20007;-74
2022/11/24 01:03:53;;;;;;;2.55;0.93;;;;;;;;;;6201739;23;20360;-74
2022/11/24 01:06:20;;;;;;;2.38;0.80;;;;;;;;;;6201537;23;20670;-75
2022/11/24 01:08:46;;;;;;;2.42;0.80;;;;;;;;;;6202686;23;20017;-73
2022/11/24 01:11:19;;;;;;;3.78;0.85;;;;;;;;;;6203052;23;20593;-73
2022/11/24 01:13:47;;;;;;;4.88;0.95;;;;;;;;;;6199755;23;20070;-73
2022/11/24 01:16:14;;;;;;;4.72;0.85;;;;;;;;;;6200727;23;20011;-73
2022/11/24 01:18:40;;;;;;;5.05;0.80;;;;;;;;;;6203339;23;20429;-73
2022/11/24 01:21:07;;;;;;;2.03;0.90;;;;;;;;;;6201368;23;20091;-73
2022/11/24 01:23:33;;;;;;;5.97;0.95;;;;;;;;;;6200701;23;20345;-73
2022/11/24 01:25:59;;;;;;;4.72;1.45;;;;;;;;;;6202297;23;20015;-74
2022/11/24 01:28:25;;;;;;;1.70;0.75;;;;;;;;;;6204052;23;20009;-73
2022/11/24 01:30:58;;;;;;;4.05;1.08;;;;;;;;;;6204848;23;20082;-73
2022/11/24 01:33:24;;;;;;;4.35;0.82;;;;;;;;;;6203401;23;20005;-73
2022/11/24 01:35:51;;;;;;;4.65;0.80;;;;;;;;;;6205035;23;20020;-73
2022/11/24 01:38:17;;;;;;;1.55;0.77;;;;;;;;;;6205386;23;20013;-73
2022/11/24 01:40:43;;;;;;;3.38;0.98;;;;;;;;;;6204623;23;20515;-73
2022/11/24 01:43:21;;;;;;;3.97;1.33;;;;;;;;;;6203921;23;20275;-73
2022/11/24 01:45:49;;;;;;;3.38;1.05;;;;;;;;;;6204866;23;20015;-73
2022/11/24 01:48:19;;;;;;;3.85;0.75;;;;;;;;;;6205355;23;20120;-73
2022/11/24 01:50:47;;;;;;;3.38;0.80;;;;;;;;;;6205508;23;20073;-73
2022/11/24 01:53:13;;;;;;;4.05;0.93;;;;;;;;;;6205300;23;20011;-73
2022/11/24 01:55:40;;;;;;;3.55;0.75;;;;;;;;;;6204741;23;20001;-73
2022/11/24 01:58:11;;;;;;;4.07;1.30;;;;;;;;;;6203766;23;20425;-73
2022/11/24 02:00:37;;;;;;;;;;;;;;;;;;6206151;23;20008;-73
2022/11/24 02:03:04;;;;;;;6.95;1.13;;;;;;;;;;6205191;23;19900;-72
2022/11/24 02:05:50;;;;;;;5.63;1.23;;;;;;;;;;6205269;23;20013;-73
2022/11/24 02:08:24;;;;;;;6.05;1.27;;;;;;;;;;6203688;23;20568;-73
2022/11/24 02:10:51;;;;;;;2.78;0.90;;;;;;;;;;6205051;23;20000;-74
2022/11/24 02:13:17;;;;;;;8.32;1.13;;;;;;;;;;6204657;23;20020;-73
2022/11/24 02:15:43;;;;;;;6.78;1.20;;;;;;;;;;6202416;23;20008;-73
2022/11/24 02:18:10;;;;;;;3.67;0.80;;;;;;;;;;6204650;23;20238;-73
2022/11/24 02:20:36;;;;;;;4.45;0.98;;;;;;;;;;6204985;23;20062;-73
2022/11/24 02:23:10;;;;;;;2.47;0.90;;;;;;;;;;6202017;23;20400;-73
2022/11/24 02:25:39;;;;;;;3.75;0.95;;;;;;;;;;6204475;23;19997;-73
2022/11/24 02:28:06;;;;;;;5.88;1.25;;;;;;;;;;6205090;23;20393;-73
2022/11/24 02:30:33;;;;;;;6.55;1.17;;;;;;;;;;6204551;23;19996;-73
2022/11/24 02:32:59;;;;;;;4.32;0.93;;;;;;;;;;6203510;23;20527;-73
2022/11/24 02:35:26;;;;;;;7.38;1.20;;;;;;;;;;6202271;23;20012;-73
2022/11/24 02:37:52;;;;;;;6.85;1.27;;;;;;;;;;6202311;23;20054;-73
2022/11/24 02:40:23;;;;;;;3.00;1.10;;;;;;;;;;6199182;23;20001;-74
2022/11/24 02:42:50;;;;;;;7.37;1.03;;;;;;;;;;6198762;23;20038;-73
2022/11/24 02:45:16;;;;;;;3.25;0.80;;;;;;;;;;6198493;23;20211;-73
2022/11/24 02:47:43;;;;;;;3.20;0.80;;;;;;;;;;6198038;23;20095;-73
2022/11/24 02:50:10;;;;;;;6.88;0.98;;;;;;;;;;6199555;23;20099;-73
2022/11/24 02:52:36;;;;;;;4.88;1.35;;;;;;;;;;6196259;23;20051;-73
2022/11/24 02:55:03;;;;;;;4.38;1.08;;;;;;;;;;6199382;23;20672;-73
2022/11/24 02:57:29;;;;;;;3.42;0.77;;;;;;;;;;6198676;23;20004;-72
2022/11/24 02:59:55;;;;;;;3.63;0.90;;;;;;;;;;6195970;23;20055;-73
2022/11/24 03:02:21;;;;;;;3.17;0.82;;;;;;;;;;6198509;23;20035;-73
2022/11/24 03:04:48;;;;;;;2.88;1.00;;;;;;;;;;6198625;23;20337;-73
2022/11/24 03:07:14;;;;;;;5.07;1.10;;;;;;;;;;6197554;23;20018;-75
2022/11/24 03:09:40;;;;;;;2.85;1.13;;;;;;;;;;6199537;23;20702;-73
2022/11/24 03:12:06;;;;;;;7.45;1.70;;;;;;;;;;6196356;23;20580;-73
2022/11/24 03:14:32;;;;;;;2.67;1.20;;;;;;;;;;6199026;23;20004;-73
2022/11/24 03:16:59;;;;;;;5.45;3.50;;;;;;;;;;6197324;23;20594;-74
2022/11/24 03:19:25;;;;;;;7.60;2.60;;;;;;;;;;6197575;23;20000;-73
2022/11/24 03:21:51;;;;;;;9.98;3.20;;;;;;;;;;6198703;23;19997;-74
2022/11/24 03:24:17;;;;;;;6.53;3.22;;;;;;;;;;6199020;23;20005;-73
2022/11/24 03:26:43;;;;;;;4.53;2.50;;;;;;;;;;6198672;23;20008;-73
2022/11/24 03:29:09;;;;;;;8.55;3.42;;;;;;;;;;6198381;23;20012;-73
2022/11/24 03:31:35;;;;;;;5.88;2.88;;;;;;;;;;6197256;23;20012;-73
2022/11/24 03:34:02;;;;;;;5.95;3.20;;;;;;;;;;6198301;23;20406;-74
2022/11/24 03:36:28;;;;;;;11.00;3.90;;;;;;;;;;6198257;23;20008;-74
2022/11/24 03:38:54;;;;;;;5.72;3.42;;;;;;;;;;6197285;23;20005;-73
2022/11/24 03:41:20;;;;;;;7.68;3.22;;;;;;;;;;6198404;23;20004;-73
2022/11/24 03:43:46;;;;;;;6.45;3.35;;;;;;;;;;6198388;23;20005;-73
2022/11/24 03:46:13;;;;;;;7.40;2.67;;;;;;;;;;6196988;23;20766;-73
2022/11/24 03:48:39;;;;;;;10.40;2.72;;;;;;;;;;6199112;23;20087;-73
2022/11/24 03:51:05;;;;;;;8.15;3.25;;;;;;;;;;6198929;23;20005;-73
2022/11/24 03:53:32;;;;;;;8.52;3.03;;;;;;;;;;6197802;23;20592;-73
2022/11/24 03:55:59;;;;;;;6.30;2.22;;;;;;;;;;6198804;23;20019;-73
2022/11/24 03:58:25;;;;;;;5.35;1.70;;;;;;;;;;6196894;23;20004;-73
2022/11/24 04:00:52;;;;;;;3.35;0.88;;;;;;;;;;6198851;23;20028;-73
2022/11/24 04:03:19;;;;;;;2.78;1.20;;;;;;;;;;6198543;23;20036;-73
2022/11/24 04:05:45;;;;;;;2.58;1.08;;;;;;;;;;6198196;23;20024;-73
2022/11/24 04:08:12;;;;;;;5.65;1.10;;;;;;;;;;6196424;23;20019;-73
2022/11/24 04:10:38;;;;;;;5.50;1.17;;;;;;;;;;6197245;23;20516;-73
2022/11/24 04:13:09;;;;;;;5.63;1.27;;;;;;;;;;6201880;23;20000;-73
2022/11/24 04:15:37;;;;;;;2.35;1.30;;;;;;;;;;6201956;23;20009;-73
2022/11/24 04:18:03;;;;;;;3.38;1.20;;;;;;;;;;6201922;23;20467;-72
2022/11/24 04:20:29;;;;;;;5.55;0.70;;;;;;;;;;6201641;23;20001;-73
2022/11/24 04:22:55;;;;;;;3.85;1.00;;;;;;;;;;6199873;23;20492;-72
2022/11/24 04:25:21;;;;;;;7.20;1.67;;;;;;;;;;6199667;23;20749;-74
2022/11/24 04:27:51;;;;;;;4.97;1.83;;;;;;;;;;6202171;23;20016;-73
2022/11/24 04:30:18;;;;;;;5.72;2.40;;;;;;;;;;6201814;22;20638;-75
2022/11/24 04:32:44;;;;;;;9.27;2.80;;;;;;;;;;6202130;23;20008;-73
2022/11/24 04:35:10;;;;;;;9.13;2.97;;;;;;;;;;6201345;23;20183;-73
2022/11/24 04:37:37;;;;;;;5.45;2.80;;;;;;;;;;6200036;23;20327;-73
2022/11/24 04:40:03;;;;;;;8.85;3.17;;;;;;;;;;6201951;23;19996;-73
2022/11/24 04:42:30;;;;;;;8.00;3.22;;;;;;;;;;6204093;23;20441;-74
2022/11/24 04:44:56;;;;;;;12.50;4.35;;;;;;;;;;6204374;23;20066;-73
2022/11/24 04:47:23;;;;;;;6.82;2.75;;;;;;;;;;6201641;23;20087;-73
2022/11/24 04:49:49;;;;;;;5.57;2.50;;;;;;;;;;6205109;23;20485;-73
2022/11/24 04:52:16;;;;;;;6.32;2.42;;;;;;;;;;6203238;23;20017;-73
2022/11/24 04:54:42;;;;;;;8.48;2.95;;;;;;;;;;6204813;23;20029;-73
2022/11/24 04:57:19;;;;;;;6.30;3.08;;;;;;;;;;6203685;23;20087;-73
2022/11/24 04:59:45;;;;;;;6.00;2.35;;;;;;;;;;6203103;23;19997;-73
2022/11/24 05:02:12;;;;;;;5.05;1.70;;;;;;;;;;6201099;23;20008;-73
2022/11/24 05:04:38;;;;;;;3.85;1.15;;;;;;;;;;6201814;23;20001;-74
2022/11/24 05:07:05;;;;;;;5.40;1.70;;;;;;;;;;6201226;23;20012;-73
2022/11/24 05:09:31;;;;;;;6.03;1.90;;;;;;;;;;6202137;23;20453;-73
2022/11/24 05:11:57;;;;;;;9.60;1.63;;;;;;;;;;6201651;23;20327;-73
2022/11/24 05:14:23;;;;;;;5.13;1.80;;;;;;;;;;6201540;23;20508;-73
2022/11/24 05:16:49;;;;;;;4.97;1.45;;;;;;;;;;6199508;23;20375;-73
2022/11/24 05:19:15;;;;;;;3.20;1.13;;;;;;;;;;6200611;23;20004;-74
2022/11/24 05:21:41;;;;;;;2.55;1.08;;;;;;;;;;6201370;23;20687;-73
2022/11/24 05:24:08;;;;;;;4.70;1.50;;;;;;;;;;6199047;23;20039;-74
2022/11/24 05:26:34;;;;;;;2.38;1.20;;;;;;;;;;6196460;23;20441;-75
2022/11/24 05:29:00;;;;;;;5.35;1.40;;;;;;;;;;6198335;22;20016;-73
2022/11/24 05:31:26;;;;;;;4.90;1.20;;;;;;;;;;6200087;23;20011;-73
2022/11/24 05:33:52;;;;;;;5.95;1.10;;;;;;;;;;6200252;23;20005;-76
2022/11/24 05:37:19;;;;;;;3.10;0.88;;;;;;;;;;6199633;23;20107;-73
2022/11/24 05:39:14;;;;;;;3.42;1.10;;;;;;;;;;6191704;23;20012;-74
2022/11/24 05:41:41;;;;;;;4.90;1.30;;;;;;;;;;6200191;23;20365;-73
2022/11/24 05:44:07;;;;;;;2.10;0.98;;;;;;;;;;6199622;23;20055;-73
2022/11/24 05:46:33;;;;;;;3.17;0.70;;;;;;;;;;6200138;23;20005;-73
2022/11/24 05:48:59;;;;;;;3.90;1.55;;;;;;;;;;6199504;23;20013;-75
2022/11/24 05:51:27;;;;;;;6.03;1.13;;;;;;;;;;6197500;23;20015;-73
2022/11/24 05:53:53;;;;;;;5.68;1.75;;;;;;;;;;6194524;23;20485;-73
2022/11/24 05:56:19;;;;;;;7.40;1.30;;;;;;;;;;6198713;23;20715;-73
2022/11/24 05:58:45;;;;;;;4.72;1.10;;;;;;;;;;6199385;23;20004;-73
2022/11/24 06:01:11;;;;;;;3.22;0.90;;;;;;;;;;6199082;23;20027;-73
2022/11/24 06:03:37;;;;;;;5.10;1.08;;;;;;;;;;6199688;23;20138;-74
2022/11/24 06:06:03;;;;;;;4.88;1.05;;;;;;;;;;6198659;23;19996;-73
2022/11/24 06:08:31;;;;;;;4.93;1.00;;;;;;;;;;6197954;23;20012;-74
2022/11/24 06:11:19;;;;;;;7.15;1.98;;;;;;;;;;6200063;22;20067;-73
2022/11/24 06:13:47;;;;;;;7.28;1.38;;;;;;;;;;6199685;23;20005;-73
2022/11/24 06:16:13;;;;;;;7.45;1.40;;;;;;;;;;6198135;23;20005;-73
2022/11/24 06:18:40;;;;;;;6.60;1.67;;;;;;;;;;6197801;23;20005;-73
2022/11/24 06:21:06;;;;;;;8.25;2.60;;;;;;;;;;6199191;23;20012;-73
2022/11/24 06:23:32;;;;;;;9.57;2.45;;;;;;;;;;6199567;23;20013;-74
2022/11/24 06:25:59;;;;;;;6.20;2.47;;;;;;;;;;6199665;23;20091;-72
2022/11/24 06:28:26;;;;;;;6.53;2.20;;;;;;;;;;6195354;23;20507;-73
2022/11/24 06:30:52;;;;;;;7.68;2.22;;;;;;;;;;6199560;23;20435;-74
2022/11/24 06:33:18;;;;;;;10.32;2.75;;;;;;;;;;6199381;23;20001;-73
2022/11/24 06:35:44;;;;;;;11.77;2.00;;;;;;;;;;6198321;23;20027;-77
2022/11/24 06:38:10;;;;;;;5.07;2.00;;;;;;;;;;6197451;23;20008;-74
2022/11/24 06:40:36;;;;;;;8.75;2.10;;;;;;;;;;6198044;23;20540;-73
2022/11/24 06:43:03;;;;;;;8.05;2.28;;;;;;;;;;6199466;23;20364;-73
2022/11/24 06:45:29;;;;;;;7.20;2.08;;;;;;;;;;6199361;23;20689;-73
2022/11/24 06:47:55;;;;;;;8.35;2.38;;;;;;;;;;6197806;23;20021;-74
2022/11/24 06:50:22;;;;;;;8.98;2.25;;;;;;;;;;6199123;23;20709;-73
2022/11/24 06:52:48;;;;;;;9.07;2.38;;;;;;;;;;6198652;23;20015;-73
2022/11/24 06:55:14;;;;;;;12.77;2.90;;;;;;;;;;6199738;23;20008;-73
2022/11/24 06:57:41;;;;;;;9.35;2.08;;;;;;;;;;6199375;23;20005;-74
2022/11/24 07:00:07;;;;;;;8.88;2.10;;;;;;;;;;6199311;23;20004;-73
2022/11/24 07:02:33;;;;;;;7.00;1.85;;;;;;;;;;6197761;23;20039;-75
2022/11/24 07:05:00;;;;;;;7.53;2.22;;;;;;;;;;6199427;23;20552;-73
2022/11/24 07:07:26;;;;;;;9.32;1.98;;;;;;;;;;6198561;23;20012;-74
2022/11/24 07:09:52;;;;;;;5.93;1.80;;;;;;;;;;6199072;23;20001;-74
2022/11/24 07:12:18;;;;;;;8.57;1.95;;;;;;;;;;6198959;23;20004;-73
2022/11/24 07:14:44;;;;;;;9.60;1.80;;;;;;;;;;6197352;23;20003;-73
2022/11/24 07:17:10;;;;;;;5.72;1.70;;;;;;;;;;6198412;23;19996;-73
2022/11/24 07:19:36;;;;;;;6.50;2.22;;;;;;;;;;6198719;23;20061;-76
2022/11/24 07:22:03;;;;;;;10.80;3.10;;;;;;;;;;6199401;23;20062;-73
2022/11/24 07:24:29;;;;;;;10.48;3.05;;;;;;;;;;6199243;23;20079;-73
2022/11/24 07:26:55;;;;;;;9.20;2.25;;;;;;;;;;6198649;23;20011;-73
2022/11/24 07:29:21;;;;;;;12.82;2.58;;;;;;;;;;6195295;23;20012;-73
2022/11/24 07:31:47;;;;;;;9.05;1.73;;;;;;;;;;6199685;23;20434;-73
2022/11/24 07:34:13;;;;;;;11.43;1.77;;;;;;;;;;6197640;23;20080;-73
2022/11/24 07:36:40;;;;;;;6.13;1.88;;;;;;;;;;6197787;23;20021;-74
2022/11/24 07:39:06;;;;;;;8.20;1.83;;;;;;;;;;6201563;23;20004;-74
2022/11/24 07:41:32;;;;;;;7.03;1.50;;;;;;;;;;6201249;23;20031;-74
2022/11/24 07:43:58;;;;;;;8.13;1.40;;;;;;;;;;6201593;23;20008;-74
2022/11/24 07:46:25;;;;;;;11.90;1.98;;;;;;;;;;6200619;23;20083;-74
2022/11/24 07:48:51;;;;;;;5.32;1.50;;;;;;;;;;6201627;23;20055;-73
2022/11/24 07:51:17;;;;;;;5.13;2.00;;;;;;;;;;6199020;23;20001;-75
2022/11/24 07:53:43;;;;;;;8.55;2.42;;;;;;;;;;6201654;23;20004;-74
2022/11/24 07:56:10;;;;;;;7.10;2.67;;;;;;;;;;6199884;23;20465;-76
2022/11/24 07:58:37;;;;;;;7.93;1.65;;;;;;;;;;6200593;23;20013;-76
2022/11/24 08:01:10;;;;;;;9.63;2.35;;;;;;;;;;6199690;23;19996;-76
2022/11/24 08:03:36;;;;;;;8.55;2.33;;;;;;;;;;6198315;23;20075;-76
2022/11/24 08:06:02;;;;;;;8.98;2.28;;;;;;;;;;6198844;23;20000;-75
2022/11/24 08:08:32;;;;;;;7.70;2.28;;;;;;;;;;6200603;23;20023;-76
2022/11/24 08:10:58;;;;;;;9.07;2.80;;;;;;;;;;6201307;23;19996;-75
2022/11/24 08:13:24;;;;;;;12.50;2.40;;;;;;;;;;6197113;23;20756;-75
2022/11/24 08:15:50;;;;;;;8.50;2.22;;;;;;;;;;6199174;23;20051;-75
2022/11/24 08:18:16;;;;;;;18.75;2.22;;;;;;;;;;6199596;23;20381;-75
2022/11/24 08:20:42;;;;;;;10.55;1.80;;;;;;;;;;6196103;23;20418;-76
2022/11/24 08:23:08;;;;;;;6.00;2.35;;;;;;;;;;6198112;23;20001;-75
2022/11/24 08:25:35;;;;;;;10.52;2.08;;;;;;;;;;6198914;23;20000;-79
2022/11/24 08:28:02;;;;;;;9.98;2.55;;;;;;;;;;6198364;23;20441;-79
2022/11/24 08:30:29;;;;;;;13.82;2.28;;;;;;;;;;6199265;23;20054;-78
2022/11/24 08:32:55;;;;;;;11.10;2.45;;;;;;;;;;6200520;23;20773;-78
2022/11/24 08:35:21;;;;;;;8.70;2.20;;;;;;;;;;6197126;23;20353;-79
2022/11/24 08:37:47;;;;;;;8.38;1.60;;;;;;;;;;6200211;23;20000;-76
2022/11/24 08:40:13;;;;;;;9.98;1.80;;;;;;;;;;6200757;23;20009;-78
2022/11/24 08:42:40;;;;;;;15.48;2.63;;;;;;;;;;6198727;23;20029;-80
2022/11/24 08:45:06;;;;;;;9.90;2.33;;;;;;;;;;6200410;23;20004;-79
2022/11/24 08:47:32;;;;;;;8.65;2.40;;;;;;;;;;6199570;23;20437;-79
2022/11/24 08:49:58;;;;;;;11.40;2.50;;;;;;;;;;6199303;23;20005;-80
2022/11/24 08:52:24;;;;;;;8.10;2.53;;;;;;;;;;6198611;23;20008;-79
2022/11/24 08:54:50;;;;;;;7.45;2.35;;;;;;;;;;6198429;23;20784;-78
2022/11/24 08:57:16;;;;;;;6.63;1.52;;;;;;;;;;6201104;23;20603;-76
2022/11/24 08:59:43;;;;;;;11.40;2.10;;;;;;;;;;6202572;23;20007;-75
2022/11/24 09:02:12;;;;;;;11.65;2.28;;;;;;;;;;6202854;22;20434;-76
2022/11/24 09:04:38;;;;;;;9.77;1.95;;;;;;;;;;6200804;23;20005;-79
2022/11/24 09:07:05;;;;;;;17.98;3.05;;;;;;;;;;6202723;23;20005;-79
2022/11/24 09:09:31;;;;;;;9.93;2.33;;;;;;;;;;6203221;23;20008;-75
2022/11/24 09:11:57;;;;;;;13.57;2.70;;;;;;;;;;6202982;23;20050;-77
2022/11/24 09:14:23;;;;;;;9.07;2.60;;;;;;;;;;6202434;23;20552;-79
2022/11/24 09:16:49;;;;;;;11.88;2.33;;;;;;;;;;6199836;23;19996;-78
2022/11/24 09:19:16;;;;;;;12.23;2.88;;;;;;;;;;6202746;23;20008;-77
2022/11/24 09:21:42;;;;;;;12.32;2.90;;;;;;;;;;6202182;23;20008;-79
2022/11/24 09:24:09;;;;;;;9.20;2.20;;;;;;;;;;6200766;23;20035;-78
2022/11/24 09:26:36;;;;;;;12.20;2.95;;;;;;;;;;6202139;23;20374;-75
2022/11/24 09:29:04;;;;;;;12.85;2.92;;;;;;;;;;6202875;23;20013;-75
2022/11/24 09:31:33;;;;;;;10.88;2.47;;;;;;;;;;6202391;23;20063;-75
2022/11/24 09:34:00;;;;;;;9.60;2.40;;;;;;;;;;6202540;23;20475;-76
2022/11/24 09:36:26;;;;;;;13.35;3.13;;;;;;;;;;6197355;23;20020;-75
2022/11/24 09:38:52;;;;;;;14.23;3.42;;;;;;;;;;6200828;23;20007;-75
2022/11/24 09:41:22;;;;;;;14.52;2.97;;;;;;;;;;6201913;23;20063;-75
2022/11/24 09:44:08;;;;;;;15.82;3.10;;;;;;;;;;6200912;23;20028;-75
2022/11/24 09:46:40;;;;;;;15.02;3.40;;;;;;;;;;6185707;23;20051;-75
2022/11/24 09:49:09;;;;;;;17.02;3.08;;;;;;;;;;6200148;23;20013;-76
2022/11/24 09:51:36;;;;;;;16.10;3.05;;;;;;;;;;6201856;23;20050;-75
2022/11/24 09:54:09;;;;;;;16.40;3.50;;;;;;;;;;6201927;23;20008;-75
2022/11/24 09:56:36;;;;;;;18.75;3.35;;;;;;;;;;6201471;23;19997;-75
2022/11/24 09:59:05;;;;;;;24.35;3.72;;;;;;;;;;6200006;23;20099;-75
2022/11/24 10:01:33;;;;;;;22.23;4.07;;;;;;;;;;6202298;23;20473;-75
2022/11/24 10:04:00;;;;;;;16.00;3.03;;;;;;;;;;6202238;23;20005;-75
2022/11/24 10:06:26;;;;;;;12.57;2.88;;;;;;;;;;6201611;23;20001;-75
2022/11/24 10:09:05;;;;;;;14.57;3.47;;;;;;;;;;6200140;23;20026;-76
2022/11/24 10:11:55;;;;;;;17.23;4.45;;;;;;;;;;6202272;23;20001;-75
2022/11/24 10:14:33;;;;;;;21.20;3.15;;;;;;;;;;6190150;23;20032;-75
2022/11/24 10:17:05;;;;;;;19.60;2.97;;;;;;;;;;6195193;23;20017;-76
2022/11/24 10:19:50;;;;;;;14.68;2.60;;;;;;;;;;6198447;23;20000;-75
2022/11/24 10:22:17;;;;;;;11.80;3.22;;;;;;;;;;6200295;23;20033;-75
2022/11/24 10:24:55;;;;;;;12.93;2.83;;;;;;;;;;6200761;23;20034;-76
2022/11/24 10:27:41;;;;;;;10.45;2.45;;;;;;;;;;6201076;23;20036;-76
2022/11/24 10:30:21;;;;;;;16.38;2.53;;;;;;;;;;6198447;23;20083;-76
2022/11/24 10:32:48;;;;;;;24.33;4.10;;;;;;;;;;6199990;23;20647;-74
2022/11/24 10:35:22;;;;;;;14.40;3.13;;;;;;;;;;6200485;23;20027;-74
2022/11/24 10:37:49;;;;;;;14.02;2.88;;;;;;;;;;6200524;23;20017;-74
2022/11/24 10:40:15;;;;;;;13.90;2.75;;;;;;;;;;6196975;23;20032;-75
2022/11/24 10:42:42;;;;;;;13.32;2.20;;;;;;;;;;6200558;23;20032;-74
2022/11/24 10:45:21;;;;;;;15.20;2.67;;;;;;;;;;6199094;23;20011;-74
2022/11/24 10:47:48;;;;;;;17.33;3.00;;;;;;;;;;6200496;23;20450;-74
2022/11/24 10:50:20;;;;;;;14.45;2.47;;;;;;;;;;6199258;23;20007;-75
2022/11/24 10:53:06;;;;;;;17.45;2.83;;;;;;;;;;6200930;23;20004;-74
2022/11/24 10:55:51;;;;;;;16.35;2.47;;;;;;;;;;6200763;23;20000;-74
2022/11/24 10:58:22;;;;;;;9.63;2.65;;;;;;;;;;6200601;23;20076;-75
2022/11/24 11:00:48;;;;;;;8.07;2.15;;;;;;;;;;6199233;23;20426;-75
2022/11/24 11:03:21;;;;;;;11.18;2.00;;;;;;;;;;6200666;23;20442;-75
2022/11/24 11:05:50;;;;;;;8.82;1.90;;;;;;;;;;6200780;23;20001;-74
2022/11/24 11:08:18;;;;;;;11.05;2.85;;;;;;;;;;6199862;23;20016;-76
2022/11/24 11:10:45;;;;;;;12.13;3.22;;;;;;;;;;6198903;23;20001;-74
2022/11/24 11:13:31;;;;;;;10.07;2.13;;;;;;;;;;6200765;23;20004;-74
2022/11/24 11:15:58;;;;;;;10.40;1.80;;;;;;;;;;6200486;23;20433;-75
2022/11/24 11:18:31;;;;;;;7.78;2.30;;;;;;;;;;6200439;23;20005;-75
2022/11/24 11:21:00;;;;;;;10.77;2.00;;;;;;;;;;6200518;23;20005;-76
2022/11/24 11:23:34;;;;;;;6.50;1.60;;;;;;;;;;6198339;22;19996;-75
2022/11/24 11:26:19;;;;;;;6.35;1.52;;;;;;;;;;6200610;23;20032;-75
2022/11/24 11:28:59;;;;;;;6.55;1.30;;;;;;;;;;6199458;23;20008;-75
2022/11/24 11:31:25;;;;;;;7.63;1.45;;;;;;;;;;6198624;23;20058;-75
2022/11/24 11:33:59;;;;;;;7.45;2.10;;;;;;;;;;6200983;23;20621;-75
2022/11/24 11:36:36;;;;;;;5.63;1.83;;;;;;;;;;6197715;23;20036;-76
2022/11/24 11:39:03;;;;;;;10.38;1.90;;;;;;;;;;6200998;23;20066;-76
2022/11/24 11:41:33;;;;;;;8.35;1.67;;;;;;;;;;6200131;23;20028;-76
2022/11/24 11:44:17;;;;;;;12.73;2.00;;;;;;;;;;6197570;23;20009;-76
2022/11/24 11:46:46;;;;;;;5.97;1.35;;;;;;;;;;6199982;22;20098;-76
2022/11/24 11:49:12;;;;;;;5.72;1.23;;;;;;;;;;6198596;23;20067;-76
2022/11/24 11:51:44;;;;;;;8.85;1.50;;;;;;;;;;6200395;23;20686;-76
2022/11/24 11:54:23;;;;;;;12.23;1.77;;;;;;;;;;6198540;23;20012;-76
2022/11/24 11:56:55;;;;;;;11.18;2.10;;;;;;;;;;6200546;23;20471;-75
2022/11/24 11:59:21;;;;;;;;;;;;;;;;;;6200640;23;20028;-75
2022/11/24 12:02:06;;;;;;;12.73;2.70;;;;;;;;;;6198733;23;19904;-75
2022/11/24 12:04:51;;;;;;;12.13;2.75;;;;;;;;;;6197178;23;20112;-73
2022/11/24 12:07:23;;;;;;;11.27;2.08;;;;;;;;;;6199703;22;20011;-75
2022/11/24 12:09:49;;;;;;;12.30;2.05;;;;;;;;;;6198646;23;20028;-76
2022/11/24 12:12:25;;;;;;;11.77;3.08;;;;;;;;;;6198305;23;20644;-75
2022/11/24 12:15:14;;;;;;;12.98;2.50;;;;;;;;;;6198394;23;20032;-77
2022/11/24 12:17:45;;;;;;;10.80;1.85;;;;;;;;;;6197438;23;19996;-76
2022/11/24 12:20:24;;;;;;;14.35;1.85;;;;;;;;;;6198326;23;20005;-76
2022/11/24 12:23:02;;;;;;;12.55;2.20;;;;;;;;;;6198155;23;20763;-74
2022/11/24 12:25:37;;;;;;;15.15;2.25;;;;;;;;;;6198304;23;20032;-75
2022/11/24 12:28:22;;;;;;;10.27;2.50;;;;;;;;;;6199786;23;20107;-76
2022/11/24 12:31:00;;;;;;;8.80;1.80;;;;;;;;;;6199530;23;20008;-75
2022/11/24 12:33:30;;;;;;;11.00;2.47;;;;;;;;;;6198979;23;20492;-75
2022/11/24 12:36:03;;;;;;;8.00;2.00;;;;;;;;;;6202615;23;20123;-74
2022/11/24 12:38:48;;;;;;;13.65;1.85;;;;;;;;;;6201805;22;20034;-73
2022/11/24 12:41:23;;;;;;;11.85;2.40;;;;;;;;;;6199917;23;20008;-74
2022/11/24 12:43:51;;;;;;;13.95;2.22;;;;;;;;;;6200855;23;20024;-74
2022/11/24 12:46:31;;;;;;;15.32;2.42;;;;;;;;;;6200925;23;20042;-76
2022/11/24 12:49:00;;;;;;;12.45;2.03;;;;;;;;;;6202184;23;20013;-74
2022/11/24 12:51:35;;;;;;;16.35;2.65;;;;;;;;;;6201736;23;20001;-75
2022/11/24 12:54:02;;;;;;;10.30;2.13;;;;;;;;;;6201988;23;20008;-74
2022/11/24 12:56:34;;;;;;;13.23;2.22;;;;;;;;;;6200373;23;20075;-74
2022/11/24 12:59:19;;;;;;;10.45;2.17;;;;;;;;;;6202849;23;20027;-75
2022/11/24 13:02:04;;;;;;;10.93;2.60;;;;;;;;;;6201722;23;20001;-74
2022/11/24 13:04:51;;;;;;;11.43;2.85;;;;;;;;;;6200652;23;20007;-75
2022/11/24 13:07:34;;;;;;;11.60;2.47;;;;;;;;;;6199484;23;20005;-74
2022/11/24 13:10:19;;;;;;;13.60;2.35;;;;;;;;;;6199909;23;20090;-74
2022/11/24 13:12:54;;;;;;;12.15;3.28;;;;;;;;;;6201928;23;20046;-73
2022/11/24 13:15:20;;;;;;;18.27;2.88;;;;;;;;;;6200992;23;20031;-73
2022/11/24 13:17:46;;;;;;;11.23;2.65;;;;;;;;;;6201681;23;20040;-74
2022/11/24 13:20:36;;;;;;;12.88;2.35;;;;;;;;;;6201560;23;20051;-74
2022/11/24 13:23:02;;;;;;;14.70;2.85;;;;;;;;;;6186045;23;20222;-73
2022/11/24 13:25:30;;;;;;;10.73;2.10;;;;;;;;;;6202094;23;20008;-74
2022/11/24 13:27:58;;;;;;;14.32;2.35;;;;;;;;;;6199897;23;20066;-75
2022/11/24 13:30:33;;;;;;;10.38;2.95;;;;;;;;;;6200269;23;20326;-75
2022/11/24 13:33:18;;;;;;;15.05;2.70;;;;;;;;;;6201544;23;20725;-75
2022/11/24 13:36:03;;;;;;;12.15;3.13;;;;;;;;;;6199015;23;20026;-75
2022/11/24 13:38:42;;;;;;;12.85;1.75;;;;;;;;;;6199687;23;20071;-75
2022/11/24 13:41:09;;;;;;;10.30;2.17;;;;;;;;;;6198387;22;20189;-75
2022/11/24 13:43:36;;;;;;;16.98;3.03;;;;;;;;;;6198317;23;20352;-74
2022/11/24 13:46:29;;;;;;;9.95;2.72;;;;;;;;;;6200086;23;20086;-76
2022/11/24 13:48:58;;;;;;;11.63;2.92;;;;;;;;;;6198044;23;20027;-73
2022/11/24 13:51:25;;;;;;;12.90;2.28;;;;;;;;;;6198862;23;20001;-74
2022/11/24 13:53:53;;;;;;;16.55;2.63;;;;;;;;;;6197065;23;20005;-75
2022/11/24 13:56:24;;;;;;;15.38;2.85;;;;;;;;;;6197165;23;20039;-74
2022/11/24 13:58:55;;;;;;;91.40;10.00;;;;;;;;;;6199680;23;20005;-75
2022/11/24 14:01:23;;;;;;;35.10;5.77;;;;;;;;;;6199987;23;20004;-74
2022/11/24 14:04:01;;;;;;;22.77;4.32;;;;;;;;;;6197415;23;20019;-74
2022/11/24 14:06:41;;;;;;;14.63;2.40;;;;;;;;;;6199196;23;20000;-73
2022/11/24 14:09:25;;;;;;;14.50;1.98;;;;;;;;;;6196117;23;20354;-74
2022/11/24 14:11:58;;;;;;;16.30;2.50;;;;;;;;;;6199375;23;20187;-74
2022/11/24 14:14:25;;;;;;;13.45;2.55;;;;;;;;;;6197663;23;20439;-74
2022/11/24 14:17:07;;;;;;;11.55;2.60;;;;;;;;;;6197085;23;20004;-75
2022/11/24 14:19:33;;;;;;;21.00;2.42;;;;;;;;;;6198847;23;20173;-75
2022/11/24 14:22:00;;;;;;;11.82;1.80;;;;;;;;;;6198271;23;20000;-74
2022/11/24 14:24:32;;;;;;;11.55;1.92;;;;;;;;;;6198463;23;20032;-79
2022/11/24 14:26:58;;;;;;;13.13;2.55;;;;;;;;;;6198848;23;20714;-76
2022/11/24 14:29:27;;;;;;;12.45;3.03;;;;;;;;;;6195990;23;20103;-75
2022/11/24 14:31:53;;;;;;;13.88;2.30;;;;;;;;;;6198233;22;20005;-74
2022/11/24 14:34:20;;;;;;;12.40;2.60;;;;;;;;;;6196463;23;20004;-74
2022/11/24 14:36:47;;;;;;;11.25;2.83;;;;;;;;;;6197755;23;20091;-73
2022/11/24 14:39:14;;;;;;;12.00;2.38;;;;;;;;;;6197088;23;20087;-73
2022/11/24 14:41:42;;;;;;;9.70;2.10;;;;;;;;;;6198703;23;20413;-73
2022/11/24 14:44:24;;;;;;;10.43;2.20;;;;;;;;;;6198269;23;20007;-73
2022/11/24 14:47:00;;;;;;;12.77;2.65;;;;;;;;;;6197601;23;20087;-73
2022/11/24 14:49:26;;;;;;;11.05;2.30;;;;;;;;;;6197707;22;20043;-73